Time;durP1;ratioP1;P1;durP2;ratioP2;P2;SDS_P1;SDS_P2;PMS_P1;PMS_P2;Temp;Humidity;BMP_temperature;BMP_pressure;BME280_temperature;BME280_humidity;BME280_pressure;Samples;Min_cycle;Max_cycle;Signal;HPM_P1;HPM_P2
2023/06/09 00:01:53;;;;;;;18.55;9.05;;;17.50;81.50;;;;;;5002474;28;20030;-84
2023/06/09 00:04:20;;;;;;;12.77;9.65;;;17.40;81.60;;;;;;5003908;28;20368;-83
2023/06/09 00:06:46;;;;;;;11.03;9.10;;;17.40;82.00;;;;;;5015794;28;20088;-84
2023/06/09 00:09:13;;;;;;;15.43;9.43;;;17.30;82.10;;;;;;4996649;28;20088;-83
2023/06/09 00:11:39;;;;;;;10.65;8.77;;;17.30;82.30;;;;;;5012132;28;20061;-85
2023/06/09 00:14:05;;;;;;;16.05;8.80;;;17.20;82.70;;;;;;5014922;28;20092;-83
2023/06/09 00:16:31;;;;;;;10.60;8.43;;;17.20;82.90;;;;;;4997452;28;20157;-84
2023/06/09 00:19:03;;;;;;;15.70;8.40;;;17.20;82.90;;;;;;4996889;28;20025;-83
2023/06/09 00:21:29;;;;;;;12.02;8.60;;;17.10;83.00;;;;;;5014286;28;20018;-85
2023/06/09 00:23:55;;;;;;;10.93;9.10;;;17.10;83.20;;;;;;5014532;28;20022;-83
2023/06/09 00:26:21;;;;;;;13.35;8.70;;;17.10;83.40;;;;;;5014669;28;20033;-83
2023/06/09 00:28:47;;;;;;;15.93;8.63;;;17.00;83.60;;;;;;4995568;28;20057;-83
2023/06/09 00:31:13;;;;;;;12.60;9.32;;;17.10;83.70;;;;;;4996487;28;20521;-84
2023/06/09 00:33:39;;;;;;;14.50;8.13;;;17.10;83.70;;;;;;5014728;28;20030;-85
2023/06/09 00:36:05;;;;;;;12.95;8.18;;;17.10;83.70;;;;;;4997537;28;20065;-84
2023/06/09 00:38:31;;;;;;;12.40;7.97;;;17.20;83.50;;;;;;5015047;28;20029;-83
2023/06/09 00:40:57;;;;;;;13.57;8.40;;;17.20;83.20;;;;;;5014777;28;20096;-83
2023/06/09 00:43:23;;;;;;;11.57;8.70;;;17.20;83.20;;;;;;5014344;28;20037;-83
2023/06/09 00:45:50;;;;;;;11.55;8.10;;;17.20;83.30;;;;;;5013381;28;20060;-86
2023/06/09 00:48:16;;;;;;;11.88;8.40;;;17.20;83.30;;;;;;5014279;28;20025;-84
2023/06/09 00:50:42;;;;;;;13.65;8.20;;;17.10;83.40;;;;;;4998509;28;20034;-83
2023/06/09 00:53:09;;;;;;;10.13;8.00;;;17.10;83.70;;;;;;5004193;28;20046;-83
2023/06/09 00:55:38;;;;;;;;;;;17.00;84.00;;;;;;4996051;28;20033;-85
2023/06/09 00:58:04;;;;;;;11.10;8.40;;;16.90;83.30;;;;;;4993493;28;19956;-83
2023/06/09 01:00:31;;;;;;;10.88;8.27;;;16.90;84.20;;;;;;4995252;28;20114;-84
2023/06/09 01:03:00;;;;;;;11.63;8.43;;;16.80;84.50;;;;;;4993002;28;20050;-85
2023/06/09 01:05:32;;;;;;;10.88;8.10;;;16.80;84.70;;;;;;4992689;28;20543;-83
2023/06/09 01:08:09;;;;;;;12.25;8.50;;;16.70;85.00;;;;;;4993547;28;20042;-83
2023/06/09 01:10:48;;;;;;;12.15;9.02;;;16.70;85.20;;;;;;4993381;28;20065;-83
2023/06/09 01:13:45;;;;;;;11.98;8.50;;;16.70;85.50;;;;;;4993569;28;20023;-83
2023/06/09 01:16:21;;;;;;;13.35;8.20;;;16.60;85.50;;;;;;4993474;28;20392;-83
2023/06/09 01:18:49;;;;;;;11.77;9.07;;;16.60;85.80;;;;;;4994628;28;20026;-84
2023/06/09 01:21:35;;;;;;;13.88;8.77;;;16.50;86.10;;;;;;4992482;28;20030;-83
2023/06/09 01:24:04;;;;;;;10.43;8.65;;;16.50;86.50;;;;;;4995064;28;20054;-85
2023/06/09 01:26:32;;;;;;;13.68;8.43;;;16.40;86.80;;;;;;5000815;28;20030;-83
2023/06/09 01:28:59;;;;;;;18.30;9.05;;;16.40;86.90;;;;;;5011570;28;20005;-83
2023/06/09 01:31:26;;;;;;;10.45;7.80;;;16.30;87.70;;;;;;5016579;28;20069;-83
2023/06/09 01:33:53;;;;;;;11.65;8.38;;;16.30;87.30;;;;;;4999610;28;20392;-83
2023/06/09 01:36:20;;;;;;;11.60;8.30;;;16.30;87.60;;;;;;4996792;28;20033;-83
2023/06/09 01:38:46;;;;;;;13.73;8.80;;;16.20;87.80;;;;;;4994656;28;20018;-84
2023/06/09 01:41:13;;;;;;;10.00;8.98;;;16.20;88.00;;;;;;4997919;28;20041;-83
2023/06/09 01:43:39;;;;;;;15.27;8.40;;;16.20;88.10;;;;;;4995051;28;20560;-85
2023/06/09 01:46:05;;;;;;;14.15;9.38;;;16.20;88.20;;;;;;4995119;28;20034;-82
2023/06/09 01:49:02;;;;;;;14.75;9.57;;;16.20;88.50;;;;;;4995110;28;20041;-83
2023/06/09 01:51:51;;;;;;;11.35;9.18;;;16.20;88.70;;;;;;4990449;28;20077;-80
2023/06/09 01:54:24;;;;;;;11.98;8.82;;;16.20;88.70;;;;;;5008903;28;20158;-82
2023/06/09 01:57:07;;;;;;;12.00;7.75;;;16.20;88.80;;;;;;4999567;28;20511;-83
2023/06/09 01:59:44;;;;;;;19.70;9.48;;;16.20;88.90;;;;;;5024718;28;20014;-83
2023/06/09 02:02:12;;;;;;;11.35;8.35;;;16.20;89.00;;;;;;5035815;28;20030;-84
2023/06/09 02:04:39;;;;;;;14.57;8.40;;;16.20;88.90;;;;;;5022874;28;20108;-83
2023/06/09 02:07:08;;;;;;;9.27;8.38;;;16.20;88.90;;;;;;5008673;28;20089;-81
2023/06/09 02:09:34;;;;;;;12.77;8.93;;;16.20;89.10;;;;;;5009183;28;20022;-84
2023/06/09 02:12:00;;;;;;;11.65;8.75;;;16.30;89.10;;;;;;5012455;28;20034;-82
2023/06/09 02:14:33;;;;;;;12.13;8.13;;;16.30;88.90;;;;;;5014547;28;20429;-84
2023/06/09 02:17:02;;;;;;;12.02;8.95;;;16.30;88.80;;;;;;5019857;28;20443;-82
2023/06/09 02:19:30;;;;;;;12.48;8.02;;;16.40;88.80;;;;;;5017779;28;20029;-81
2023/06/09 02:21:57;;;;;;;14.95;8.35;;;16.40;88.60;;;;;;5018392;28;20057;-84
2023/06/09 02:24:27;;;;;;;12.23;8.25;;;16.40;88.60;;;;;;5019411;28;20051;-82
2023/06/09 02:26:54;;;;;;;10.65;7.72;;;16.50;88.50;;;;;;5028463;28;20014;-82
2023/06/09 02:29:22;;;;;;;17.55;8.48;;;16.50;88.50;;;;;;5006668;28;20030;-84
2023/06/09 02:31:48;;;;;;;14.65;8.32;;;16.50;88.40;;;;;;5012739;28;20041;-79
2023/06/09 02:34:14;;;;;;;14.02;9.02;;;16.50;88.40;;;;;;5016500;28;20037;-86
2023/06/09 02:36:42;;;;;;;12.00;8.82;;;16.50;88.40;;;;;;5018078;28;20022;-86
2023/06/09 02:39:09;;;;;;;11.80;8.15;;;16.60;88.40;;;;;;5013695;28;20022;-86
2023/06/09 02:41:35;;;;;;;12.60;8.97;;;16.60;88.30;;;;;;5011876;28;20026;-88
2023/06/09 02:44:02;;;;;;;14.88;8.27;;;16.70;88.10;;;;;;5013752;28;20522;-86
2023/06/09 02:46:29;;;;;;;11.20;8.05;;;16.80;87.80;;;;;;5014908;28;20507;-84
2023/06/09 02:48:56;;;;;;;9.77;7.43;;;16.80;87.60;;;;;;5017787;28;20033;-86
2023/06/09 02:51:22;;;;;;;12.05;8.05;;;16.90;87.50;;;;;;5005821;28;20109;-86
2023/06/09 02:53:47;;;;;;;9.43;7.85;;;17.00;87.40;;;;;;5013169;28;20065;-85
2023/06/09 02:56:13;;;;;;;14.65;8.63;;;17.10;87.60;;;;;;5013939;28;20432;-88
2023/06/09 02:58:39;;;;;;;12.20;8.93;;;17.40;87.10;;;;;;5014094;28;20029;-84
2023/06/09 03:01:06;;;;;;;10.30;7.40;;;17.70;86.50;;;;;;5013945;28;20018;-85
2023/06/09 03:03:34;;;;;;;17.23;8.95;;;18.00;85.40;;;;;;5013804;28;20029;-85
2023/06/09 03:06:00;;;;;;;11.60;7.70;;;18.30;84.20;;;;;;5014073;28;20021;-88
2023/06/09 03:08:26;;;;;;;14.20;9.43;;;18.50;83.00;;;;;;5017126;28;20105;-86
2023/06/09 03:10:53;;;;;;;13.10;8.45;;;18.90;81.90;;;;;;4997082;28;20141;-84
2023/06/09 03:13:19;;;;;;;13.95;8.40;;;19.00;80.80;;;;;;4997450;28;20121;-84
2023/06/09 03:15:45;;;;;;;12.45;8.55;;;18.90;80.00;;;;;;5015898;28;20049;-86
2023/06/09 03:18:10;;;;;;;14.55;8.43;;;18.90;80.20;;;;;;5022252;28;20030;-83
2023/06/09 03:20:36;;;;;;;10.68;7.70;;;18.90;80.00;;;;;;5023070;28;20082;-84
2023/06/09 03:23:02;;;;;;;13.68;8.60;;;18.90;80.00;;;;;;5025949;28;20078;-84
2023/06/09 03:25:30;;;;;;;9.77;8.25;;;18.70;80.20;;;;;;5015721;28;20407;-84
2023/06/09 03:27:56;;;;;;;8.75;7.43;;;18.70;80.50;;;;;;5012069;28;20040;-85
2023/06/09 03:30:23;;;;;;;16.73;7.88;;;18.70;80.40;;;;;;5014040;28;20049;-85
2023/06/09 03:32:48;;;;;;;10.55;7.40;;;18.70;80.70;;;;;;5020016;28;20048;-88
2023/06/09 03:35:15;;;;;;;10.27;8.23;;;18.70;80.50;;;;;;5017610;28;20112;-84
2023/06/09 03:37:41;;;;;;;11.43;7.90;;;18.80;80.30;;;;;;5015430;28;20368;-83
2023/06/09 03:40:07;;;;;;;14.20;7.75;;;18.70;79.90;;;;;;5005376;28;20033;-84
2023/06/09 03:42:33;;;;;;;10.87;7.87;;;18.70;80.10;;;;;;5004349;28;20045;-88
2023/06/09 03:44:59;;;;;;;14.13;8.02;;;18.70;80.50;;;;;;5018067;28;20259;-83
2023/06/09 03:47:28;;;;;;;15.45;8.07;;;18.70;80.20;;;;;;5017951;28;20502;-85
2023/06/09 03:49:54;;;;;;;10.65;7.60;;;18.70;80.30;;;;;;5017261;28;20026;-85
2023/06/09 03:52:21;;;;;;;11.02;7.95;;;18.70;80.30;;;;;;5018997;28;20038;-89
2023/06/09 03:54:48;;;;;;;12.85;8.18;;;18.80;80.20;;;;;;5001239;28;20066;-90
2023/06/09 03:57:14;;;;;;;12.32;7.95;;;18.80;80.10;;;;;;5018455;28;20033;-90
2023/06/09 03:59:40;;;;;;;11.30;7.07;;;18.90;80.00;;;;;;5019819;28;20022;-90
2023/06/09 04:02:06;;;;;;;12.48;8.07;;;19.00;79.60;;;;;;5025044;28;20060;-89
2023/06/09 04:04:31;;;;;;;18.83;8.55;;;19.00;79.70;;;;;;5009917;28;20399;-92
2023/06/09 04:06:58;;;;;;;11.80;7.55;;;19.00;79.40;;;;;;5005193;28;20042;-90
2023/06/09 04:09:25;;;;;;;11.55;8.43;;;19.10;78.80;;;;;;5009313;28;20037;-88
2023/06/09 04:11:51;;;;;;;11.52;7.75;;;19.20;78.70;;;;;;5037958;28;20113;-89
2023/06/09 04:14:17;;;;;;;16.38;8.20;;;19.30;78.30;;;;;;5021223;28;20014;-86
2023/06/09 04:16:43;;;;;;;12.02;8.18;;;19.40;78.20;;;;;;5016843;28;20026;-86
2023/06/09 04:19:09;;;;;;;13.70;8.13;;;19.40;77.80;;;;;;5021223;28;20384;-90
2023/06/09 04:21:37;;;;;;;8.90;7.75;;;19.50;77.80;;;;;;5023536;28;20072;-89
2023/06/09 04:24:03;;;;;;;14.43;8.10;;;19.50;78.70;;;;;;5025785;28;20102;-89
2023/06/09 04:26:29;;;;;;;10.95;8.18;;;19.50;77.80;;;;;;5027216;28;20030;-87
2023/06/09 04:28:55;;;;;;;11.27;7.80;;;19.70;77.90;;;;;;5017258;28;20044;-88
2023/06/09 04:31:23;;;;;;;10.75;8.20;;;19.80;77.10;;;;;;5002958;28;20049;-89
2023/06/09 04:33:53;;;;;;;11.82;8.60;;;19.90;75.90;;;;;;5001941;28;20026;-89
2023/06/09 04:36:20;;;;;;;13.18;7.97;;;20.00;75.20;;;;;;5020708;28;20381;-87
2023/06/09 04:38:47;;;;;;;11.70;8.15;;;20.10;75.40;;;;;;5020416;28;20028;-86
2023/06/09 04:41:13;;;;;;;10.82;8.02;;;20.20;75.20;;;;;;5016969;28;20018;-83
2023/06/09 04:43:39;;;;;;;14.38;8.20;;;20.30;74.80;;;;;;5016429;28;20032;-86
2023/06/09 04:46:06;;;;;;;9.27;7.05;;;20.50;73.80;;;;;;5015883;28;20072;-84
2023/06/09 04:48:34;;;;;;;11.17;7.73;;;20.50;72.80;;;;;;5020536;28;20030;-89
2023/06/09 04:51:03;;;;;;;12.23;8.02;;;20.50;72.90;;;;;;5017673;28;20022;-87
2023/06/09 04:53:30;;;;;;;11.48;7.32;;;20.50;72.60;;;;;;5016410;28;20079;-88
2023/06/09 04:55:56;;;;;;;10.85;7.35;;;20.50;72.30;;;;;;4998806;28;20030;-87
2023/06/09 04:58:23;;;;;;;13.30;7.32;;;20.40;71.90;;;;;;5024102;28;20033;-86
2023/06/09 05:00:50;;;;;;;9.55;6.82;;;20.30;72.60;;;;;;5024651;28;20002;-88
2023/06/09 05:03:17;;;;;;;12.95;7.22;;;20.40;73.40;;;;;;5010119;28;20026;-87
2023/06/09 05:05:46;;;;;;;9.53;7.07;;;20.50;72.10;;;;;;5009866;28;20022;-88
2023/06/09 05:08:17;;;;;;;10.63;7.03;;;20.60;72.00;;;;;;4999725;28;20440;-83
2023/06/09 05:10:42;;;;;;;14.27;7.47;;;21.00;72.20;;;;;;4982281;28;20106;-82
2023/06/09 05:13:08;;;;;;;14.10;7.35;;;21.80;70.10;;;;;;5001271;28;20065;-81
2023/06/09 05:15:35;;;;;;;14.02;7.32;;;23.00;67.20;;;;;;5020460;28;20042;-86
2023/06/09 05:18:01;;;;;;;9.27;7.70;;;24.30;63.30;;;;;;5006124;28;20038;-90
2023/06/09 05:20:30;;;;;;;10.73;7.57;;;25.20;60.50;;;;;;5005576;28;20030;-93
2023/06/09 05:22:56;;;;;;;10.32;6.97;;;24.90;58.80;;;;;;5009633;28;20034;-92
2023/06/09 05:25:22;;;;;;;9.85;7.30;;;24.70;59.20;;;;;;5023894;28;20086;-88
2023/06/09 05:27:49;;;;;;;12.95;7.55;;;25.30;57.90;;;;;;5015503;28;20074;-87
2023/06/09 05:30:16;;;;;;;15.23;6.97;;;26.50;56.70;;;;;;5018751;28;20046;-87
2023/06/09 05:32:42;;;;;;;12.30;6.45;;;27.80;54.40;;;;;;5033718;28;20061;-87
2023/06/09 05:35:08;;;;;;;11.70;6.03;;;28.80;50.90;;;;;;5029272;28;20121;-86
2023/06/09 05:37:34;;;;;;;10.75;6.88;;;29.00;49.20;;;;;;5031482;28;20026;-88
2023/06/09 05:39:59;;;;;;;7.57;6.38;;;29.10;48.50;;;;;;5001683;28;20025;-88
2023/06/09 05:42:25;;;;;;;13.32;6.90;;;29.50;47.80;;;;;;5019021;28;20096;-86
2023/06/09 05:44:51;;;;;;;11.60;6.38;;;;;;;;;;5017998;28;20098;-87
2023/06/09 05:47:17;;;;;;;9.47;6.07;;;;;;;;;;4998842;28;20053;-84
2023/06/09 05:49:43;;;;;;;6.83;6.07;;;30.30;46.90;;;;;;5016743;28;20089;-88
2023/06/09 05:52:09;;;;;;;8.77;5.97;;;31.70;43.10;;;;;;4998200;28;20061;-87
2023/06/09 05:54:38;;;;;;;12.00;5.73;;;32.60;41.90;;;;;;5018089;28;20050;-89
2023/06/09 05:57:05;;;;;;;11.32;5.20;;;32.90;40.40;;;;;;4989176;28;20098;-88
2023/06/09 05:59:32;;;;;;;9.98;5.43;;;32.50;39.40;;;;;;5016197;28;20053;-86
2023/06/09 06:01:58;;;;;;;12.23;5.93;;;32.60;39.30;;;;;;4998157;28;20022;-89
2023/06/09 06:04:24;;;;;;;6.73;5.20;;;33.30;38.30;;;;;;5019505;28;20075;-89
2023/06/09 06:06:50;;;;;;;10.02;5.43;;;33.00;37.50;;;;;;4976783;28;20467;-88
2023/06/09 06:09:16;;;;;;;9.20;5.17;;;32.80;38.20;;;;;;4977810;28;20041;-86
2023/06/09 06:11:42;;;;;;;8.43;4.90;;;33.70;38.00;;;;;;4989027;28;20043;-89
2023/06/09 06:14:08;;;;;;;6.27;4.37;;;34.80;36.00;;;;;;4969717;28;20038;-91
2023/06/09 06:16:36;;;;;;;7.73;5.00;;;34.90;34.90;;;;;;4979405;28;20789;-90
2023/06/09 06:19:04;;;;;;;5.93;4.30;;;34.50;35.60;;;;;;4973762;28;20034;-90
2023/06/09 06:21:30;;;;;;;10.15;5.35;;;35.00;35.10;;;;;;4980492;28;20129;-92
2023/06/09 06:23:56;;;;;;;6.85;4.88;;;35.60;34.80;;;;;;4964765;28;20126;-91
2023/06/09 06:26:23;;;;;;;8.60;4.77;;;34.70;34.50;;;;;;4963413;28;20559;-89
2023/06/09 06:28:50;;;;;;;10.50;5.25;;;34.40;35.80;;;;;;4968497;28;20073;-89
2023/06/09 06:31:16;;;;;;;7.28;4.57;;;35.00;35.10;;;;;;4985366;28;20134;-92
2023/06/09 06:33:44;;;;;;;8.70;5.35;;;36.20;34.00;;;;;;4957909;29;20047;-89
2023/06/09 06:36:11;;;;;;;9.73;5.05;;;36.30;33.80;;;;;;4977744;28;20028;-90
2023/06/09 06:38:37;;;;;;;10.00;6.43;;;36.90;32.90;;;;;;4981808;28;20039;-91
2023/06/09 06:41:05;;;;;;;8.18;5.65;;;37.20;33.10;;;;;;4969718;28;20101;-89
2023/06/09 06:43:31;;;;;;;7.28;4.88;;;37.60;32.80;;;;;;4968942;28;20105;-90
2023/06/09 06:45:57;;;;;;;5.18;4.53;;;;;;;;;;5000628;28;20147;-85
2023/06/09 06:48:24;;;;;;;13.57;5.05;;;;;;;;;;4997972;28;20070;-82
2023/06/09 06:50:55;;;;;;;5.70;4.10;;;39.00;32.60;;;;;;4993827;28;20078;-86
2023/06/09 06:53:21;;;;;;;7.45;4.10;;;;;;;;;;4996556;28;20088;-88
2023/06/09 06:55:47;;;;;;;12.68;5.20;;;40.60;29.60;;;;;;4984907;28;20030;-89
2023/06/09 06:58:12;;;;;;;5.55;4.07;;;41.00;28.60;;;;;;4999966;28;20038;-86
2023/06/09 07:00:44;;;;;;;6.55;4.30;;;40.60;28.80;;;;;;5014845;28;20030;-85
2023/06/09 07:03:11;;;;;;;6.30;4.25;;;40.80;28.70;;;;;;4998358;28;20575;-85
2023/06/09 07:05:37;;;;;;;8.15;4.25;;;41.10;28.10;;;;;;5012776;28;20022;-84
2023/06/09 07:08:04;;;;;;;5.75;4.18;;;;;;;;;;5030424;28;20026;-87
2023/06/09 07:10:31;;;;;;;7.47;4.28;;;;;;;;;;5016532;28;20090;-90
2023/06/09 07:12:57;;;;;;;8.38;4.43;;;41.40;27.90;;;;;;5009559;28;20404;-87
2023/06/09 07:15:23;;;;;;;9.82;4.03;;;42.00;26.60;;;;;;5006918;28;20075;-86
2023/06/09 07:17:48;;;;;;;4.72;4.18;;;42.10;26.30;;;;;;5020968;28;20087;-88
2023/06/09 07:20:14;;;;;;;7.25;4.78;;;42.00;26.20;;;;;;5001704;28;20082;-86
2023/06/09 07:22:41;;;;;;;7.20;4.95;;;40.70;26.60;;;;;;5020135;28;20040;-85
2023/06/09 07:25:08;;;;;;;9.13;4.97;;;40.40;26.80;;;;;;5021472;28;20092;-88
2023/06/09 07:27:34;;;;;;;5.20;4.43;;;40.00;26.80;;;;;;4996601;28;20113;-89
2023/06/09 07:30:01;;;;;;;7.65;4.72;;;39.90;26.90;;;;;;5012466;28;20100;-90
2023/06/09 07:32:27;;;;;;;10.18;4.47;;;40.40;27.20;;;;;;5009826;28;20045;-90
2023/06/09 07:34:55;;;;;;;7.10;4.50;;;;;;;;;;5009029;28;20114;-90
2023/06/09 07:37:25;;;;;;;6.90;4.07;;;41.40;26.90;;;;;;5030413;28;20436;-91
2023/06/09 07:39:51;;;;;;;8.02;4.88;;;42.70;25.90;;;;;;5023868;28;20091;-91
2023/06/09 07:42:18;;;;;;;;;;;42.60;26.10;;;;;;5031620;28;20025;-90
2023/06/09 07:44:43;;;;;;;5.13;4.63;;;42.90;26.70;;;;;;5015384;28;19920;-88
2023/06/09 07:47:10;;;;;;;;;;;43.30;25.80;;;;;;5022617;28;20026;-88
2023/06/09 07:49:36;;;;;;;7.85;4.15;;;42.90;26.60;;;;;;5023535;28;20398;-88
2023/06/09 07:52:04;;;;;;;7.18;4.93;;;42.70;25.60;;;;;;5032696;28;20112;-89
2023/06/09 07:54:30;;;;;;;6.72;4.88;;;42.00;25.30;;;;;;5001250;28;20046;-88
2023/06/09 07:56:56;;;;;;;;;;;41.90;25.90;;;;;;5024507;28;20020;-87
2023/06/09 07:59:21;;;;;;;9.00;4.43;;;42.40;26.20;;;;;;5009639;28;20000;-86
2023/06/09 08:01:47;;;;;;;;;;;42.80;25.10;;;;;;5022132;28;20037;-90
2023/06/09 08:04:15;;;;;;;5.20;4.57;;;42.20;25.40;;;;;;5018158;28;19952;-91
2023/06/09 08:06:45;;;;;;;6.43;4.90;;;41.20;25.00;;;;;;5017231;28;20034;-91
2023/06/09 08:09:12;;;;;;;7.50;4.53;;;40.70;25.10;;;;;;5015565;28;20029;-88
2023/06/09 08:11:39;;;;;;;14.77;5.57;;;40.90;25.30;;;;;;5005462;28;20038;-90
2023/06/09 08:14:06;;;;;;;6.28;4.60;;;40.50;25.40;;;;;;5023683;28;20044;-87
2023/06/09 08:16:32;;;;;;;8.93;5.10;;;40.70;25.50;;;;;;5012024;28;20029;-88
2023/06/09 08:19:01;;;;;;;;;;;41.50;25.70;;;;;;5023382;28;20022;-91
2023/06/09 08:21:27;;;;;;;7.50;4.57;;;42.30;25.90;;;;;;5020409;28;20378;-87
2023/06/09 08:23:52;;;;;;;;;;;42.20;24.80;;;;;;5005489;28;20113;-86
2023/06/09 08:26:18;;;;;;;9.98;4.47;;;42.60;25.80;;;;;;5029716;28;19906;-86
2023/06/09 08:28:44;;;;;;;;;;;43.20;24.90;;;;;;5034614;28;20053;-83
2023/06/09 08:31:10;;;;;;;9.43;4.90;;;43.90;25.20;;;;;;5034356;28;20060;-85
2023/06/09 08:33:36;;;;;;;9.85;4.53;;;43.30;24.30;;;;;;5029754;28;20109;-91
2023/06/09 08:36:07;;;;;;;5.30;4.15;;;42.70;24.40;;;;;;5019286;28;20080;-90
2023/06/09 08:38:37;;;;;;;6.05;4.50;;;42.00;24.30;;;;;;5006726;28;20022;-90
2023/06/09 08:41:08;;;;;;;7.40;4.50;;;41.80;24.90;;;;;;4983985;28;20018;-91
2023/06/09 08:43:34;;;;;;;6.22;4.72;;;42.80;25.50;;;;;;5015900;28;20026;-88
2023/06/09 08:46:03;;;;;;;6.03;5.43;;;43.10;24.60;;;;;;5023371;28;20567;-89
2023/06/09 08:48:41;;;;;;;8.80;5.03;;;43.40;24.40;;;;;;5027858;28;20026;-88
2023/06/09 08:51:11;;;;;;;8.95;4.72;;;;;;;;;;5010504;28;20053;-87
2023/06/09 08:53:40;;;;;;;6.35;4.28;;;43.80;24.30;;;;;;5018968;28;20050;-90
2023/06/09 08:56:23;;;;;;;7.90;4.45;;;43.90;24.30;;;;;;5005203;28;20030;-90
2023/06/09 08:58:50;;;;;;;7.85;4.32;;;43.80;24.10;;;;;;5005140;28;20018;-91
2023/06/09 09:01:17;;;;;;;6.75;4.78;;;43.60;24.00;;;;;;4999038;28;20027;-88
2023/06/09 09:03:44;;;;;;;7.00;4.45;;;42.90;24.30;;;;;;5010893;28;20153;-85
2023/06/09 09:06:11;;;;;;;5.72;4.70;;;42.80;24.40;;;;;;4984114;28;20046;-91
2023/06/09 09:08:37;;;;;;;6.65;5.20;;;42.50;24.40;;;;;;4992642;28;20023;-90
2023/06/09 09:11:03;;;;;;;4.93;3.90;;;42.70;24.80;;;;;;4982510;28;20571;-91
2023/06/09 09:13:30;;;;;;;7.97;5.15;;;42.50;24.10;;;;;;4991445;28;20026;-90
2023/06/09 09:15:58;;;;;;;5.65;5.00;;;40.90;24.70;;;;;;5000094;28;20078;-88
2023/06/09 09:18:29;;;;;;;8.35;6.65;;;41.10;24.90;;;;;;4982912;28;20039;-86
2023/06/09 09:20:55;;;;;;;7.10;5.22;;;40.90;25.00;;;;;;4973831;28;20034;-86
2023/06/09 09:23:31;;;;;;;7.35;5.68;;;40.90;24.90;;;;;;4977110;28;20109;-85
2023/06/09 09:26:04;;;;;;;9.52;5.35;;;41.10;25.10;;;;;;4975177;28;20033;-85
2023/06/09 09:28:40;;;;;;;7.53;4.65;;;41.60;24.70;;;;;;4977206;28;20027;-87
2023/06/09 09:31:09;;;;;;;5.22;4.72;;;41.70;24.70;;;;;;4978054;28;20031;-88
2023/06/09 09:33:41;;;;;;;5.35;4.70;;;41.80;24.80;;;;;;4976301;28;20026;-86
2023/06/09 09:36:12;;;;;;;7.20;5.47;;;42.40;24.70;;;;;;4969587;28;20026;-86
2023/06/09 09:38:43;;;;;;;7.20;5.18;;;42.80;24.50;;;;;;4976365;28;20401;-89
2023/06/09 09:41:14;;;;;;;5.57;4.00;;;43.10;24.50;;;;;;4982918;28;20468;-86
2023/06/09 09:43:40;;;;;;;4.63;3.92;;;42.70;23.80;;;;;;4983472;28;20150;-87
2023/06/09 09:46:07;;;;;;;6.15;3.90;;;42.10;24.20;;;;;;4990069;28;20022;-86
2023/06/09 09:48:37;;;;;;;7.82;4.28;;;42.40;24.50;;;;;;4989955;28;20082;-89
2023/06/09 09:51:04;;;;;;;4.85;4.15;;;42.90;24.50;;;;;;4990545;28;20037;-86
2023/06/09 09:53:30;;;;;;;5.30;4.38;;;42.40;24.10;;;;;;4986866;28;20061;-88
2023/06/09 09:56:08;;;;;;;5.40;4.68;;;41.90;24.30;;;;;;4994014;28;20041;-92
2023/06/09 09:58:44;;;;;;;6.65;4.50;;;41.90;24.60;;;;;;4974426;28;20029;-89
2023/06/09 10:01:11;;;;;;;5.72;4.70;;;41.80;24.40;;;;;;4968416;28;20409;-91
2023/06/09 10:03:46;;;;;;;5.68;3.70;;;41.60;24.80;;;;;;4983231;28;20436;-89
2023/06/09 10:06:16;;;;;;;6.15;4.15;;;41.80;24.40;;;;;;4965142;28;20122;-90
2023/06/09 10:08:43;;;;;;;4.85;3.72;;;41.60;24.30;;;;;;4982073;28;20089;-91
2023/06/09 10:11:12;;;;;;;5.82;3.72;;;41.60;24.30;;;;;;4986306;28;20037;-89
2023/06/09 10:13:38;;;;;;;6.00;4.47;;;41.00;24.60;;;;;;4995490;28;20037;-92
2023/06/09 10:16:06;;;;;;;4.90;4.40;;;41.20;25.00;;;;;;4990960;28;20102;-88
2023/06/09 10:18:33;;;;;;;8.32;4.20;;;41.40;24.70;;;;;;4981348;28;20337;-87
2023/06/09 10:21:02;;;;;;;9.48;7.35;;;39.90;24.80;;;;;;4980657;28;20104;-88
2023/06/09 10:23:28;;;;;;;4.45;4.00;;;38.80;25.60;;;;;;4979420;28;20416;-87
2023/06/09 10:25:55;;;;;;;6.47;4.47;;;37.80;25.20;;;;;;4978774;28;20031;-88
2023/06/09 10:28:21;;;;;;;6.25;4.03;;;36.40;25.80;;;;;;4983676;28;20027;-92
2023/06/09 10:30:50;;;;;;;9.25;4.82;;;34.70;26.60;;;;;;4992298;28;20122;-85
2023/06/09 10:33:33;;;;;;;7.82;5.47;;;33.30;27.90;;;;;;4988182;28;20042;-84
2023/06/09 10:36:02;;;;;;;8.13;4.40;;;32.00;28.40;;;;;;4968366;28;20058;-84
2023/06/09 10:38:53;;;;;;;5.78;4.65;;;31.10;29.00;;;;;;4965569;28;20389;-85
2023/06/09 10:41:33;;;;;;;7.72;5.15;;;30.40;29.40;;;;;;4991700;28;20089;-86
2023/06/09 10:44:09;;;;;;;11.73;7.70;;;29.60;30.10;;;;;;4991737;28;20026;-85
2023/06/09 10:46:40;;;;;;;;;;;29.10;30.70;;;;;;4975047;28;20093;-85
2023/06/09 10:49:06;;;;;;;6.75;5.50;;;28.70;30.30;;;;;;4982123;28;20418;-83
2023/06/09 10:51:32;;;;;;;7.25;4.65;;;;;;;;;;4980694;28;20050;-84
2023/06/09 10:54:28;;;;;;;10.80;5.45;;;28.30;32.10;;;;;;5005018;28;20431;-83
2023/06/09 10:56:57;;;;;;;7.80;4.90;;;27.90;32.60;;;;;;5023568;28;20037;-83
2023/06/09 10:59:26;;;;;;;8.23;5.78;;;27.80;32.60;;;;;;5035502;28;20014;-81
2023/06/09 11:02:01;;;;;;;8.32;5.47;;;27.60;33.10;;;;;;5023105;28;20132;-82
2023/06/09 11:05:00;;;;;;;7.95;5.70;;;27.60;33.40;;;;;;5020766;28;20495;-90
2023/06/09 11:07:29;;;;;;;8.38;4.88;;;27.50;33.70;;;;;;5025611;28;20034;-87
2023/06/09 11:09:55;;;;;;;7.63;5.05;;;27.40;33.40;;;;;;5005771;28;20021;-89
2023/06/09 11:12:50;;;;;;;6.95;4.90;;;27.30;33.60;;;;;;5010973;28;20101;-90
2023/06/09 11:15:16;;;;;;;9.90;5.15;;;27.00;33.20;;;;;;5008700;28;20010;-90
2023/06/09 11:17:53;;;;;;;6.72;4.38;;;26.90;33.80;;;;;;5023866;28;20034;-88
2023/06/09 11:20:22;;;;;;;7.20;4.32;;;26.80;33.70;;;;;;5018102;28;20025;-87
2023/06/09 11:22:48;;;;;;;6.68;4.90;;;26.70;34.20;;;;;;4999019;28;20069;-87
2023/06/09 11:25:17;;;;;;;5.63;4.85;;;26.80;34.40;;;;;;5018169;28;20029;-84
2023/06/09 11:27:56;;;;;;;6.78;4.65;;;26.70;34.00;;;;;;5019221;28;20049;-86
2023/06/09 11:30:27;;;;;;;5.75;4.35;;;26.60;34.20;;;;;;5029645;28;20034;-83
2023/06/09 11:33:00;;;;;;;8.20;4.85;;;26.60;34.20;;;;;;5010902;28;20053;-83
2023/06/09 11:38:02;;;;;;;9.20;5.40;;;26.50;35.00;;;;;;5009645;28;20023;-85
2023/06/09 11:40:30;;;;;;;7.65;5.30;;;26.70;34.70;;;;;;5022553;28;20037;-85
2023/06/09 11:42:57;;;;;;;7.82;5.20;;;26.70;34.40;;;;;;5014630;28;20025;-83
2023/06/09 11:45:24;;;;;;;8.88;4.70;;;26.70;34.40;;;;;;5035283;28;20032;-85
2023/06/09 11:47:56;;;;;;;6.95;4.82;;;26.70;34.30;;;;;;5026526;28;20022;-86
2023/06/09 11:50:23;;;;;;;7.65;4.85;;;26.50;34.30;;;;;;5003031;28;20431;-84
2023/06/09 11:53:05;;;;;;;6.95;5.00;;;26.50;34.10;;;;;;5016667;28;20132;-86
2023/06/09 11:55:31;;;;;;;7.78;4.47;;;26.40;33.80;;;;;;5016813;28;20084;-86
2023/06/09 11:57:57;;;;;;;6.15;4.90;;;26.30;34.20;;;;;;5001366;28;20506;-86
2023/06/09 12:00:27;;;;;;;10.40;4.57;;;26.30;34.20;;;;;;5022104;28;20025;-85
2023/06/09 12:02:55;;;;;;;40.95;10.02;;;26.30;34.00;;;;;;5000968;28;20022;-86
2023/06/09 12:05:24;;;;;;;37.88;6.82;;;26.10;39.80;;;;;;5020803;28;20092;-90
2023/06/09 12:07:51;;;;;;;52.35;9.52;;;25.30;42.30;;;;;;5006859;28;20077;-92
2023/06/09 12:10:28;;;;;;;47.08;9.13;;;24.80;44.30;;;;;;4975976;28;20022;-90
2023/06/09 12:13:02;;;;;;;28.55;6.93;;;24.60;46.20;;;;;;4976688;28;20046;-91
2023/06/09 12:15:32;;;;;;;30.38;8.15;;;24.20;47.60;;;;;;4982814;28;20037;-91
2023/06/09 12:18:03;;;;;;;23.67;6.78;;;23.70;49.00;;;;;;5008742;28;20030;-92
2023/06/09 12:20:35;;;;;;;21.23;6.78;;;23.40;50.40;;;;;;4990054;28;20027;-92
2023/06/09 12:23:21;;;;;;;35.50;7.22;;;23.10;50.90;;;;;;5006982;28;20017;-93
2023/06/09 12:26:22;;;;;;;;;;;;;;;;;;;;;
2023/06/09 12:29:22;;;;;;;12.77;5.57;;;22.70;52.60;;;;;;4981116;28;20101;-93
2023/06/09 12:31:50;;;;;;;16.13;5.78;;;22.70;52.90;;;;;;5026984;28;20038;-93
2023/06/09 12:34:30;;;;;;;10.50;5.65;;;22.60;53.20;;;;;;4993672;28;20025;-93
2023/06/09 12:36:58;;;;;;;9.55;5.50;;;22.60;53.50;;;;;;5014113;28;20100;-94
2023/06/09 12:39:24;;;;;;;;;;;22.50;53.40;;;;;;5004576;28;20022;-89
2023/06/09 12:41:51;;;;;;;17.15;5.63;;;22.30;52.40;;;;;;4995509;28;19921;-88
2023/06/09 12:44:24;;;;;;;6.45;4.65;;;22.20;54.10;;;;;;5010556;28;20049;-85
2023/06/09 12:46:57;;;;;;;12.93;5.13;;;22.20;54.50;;;;;;5023804;28;20026;-85
2023/06/09 12:49:32;;;;;;;8.35;4.75;;;22.10;54.70;;;;;;5036679;28;20018;-86
2023/06/09 12:52:02;;;;;;;8.55;5.57;;;22.10;54.70;;;;;;5029173;28;20048;-85
2023/06/09 12:54:28;;;;;;;11.35;5.55;;;22.00;55.30;;;;;;5011996;28;20463;-88
2023/06/09 12:56:55;;;;;;;8.80;4.88;;;22.10;55.90;;;;;;5019766;28;20029;-84
2023/06/09 12:59:22;;;;;;;10.20;5.22;;;22.10;55.50;;;;;;5017533;28;20379;-85